Time;durP1;ratioP1;P1;durP2;ratioP2;P2;SDS_P1;SDS_P2;PMS_P1;PMS_P2;Temp;Humidity;BMP_temperature;BMP_pressure;BME280_temperature;BME280_humidity;BME280_pressure;Samples;Min_cycle;Max_cycle;Signal;HPM_P1;HPM_P2
2023/10/11 00:00:58;;;;;;;;;;;;;;;;;;5056025;28;20058;-70
2023/10/11 00:05:50;;;;;;;36.37;11.17;;;;;;;;;;5073610;28;20059;-71
2023/10/11 00:08:17;;;;;;;32.53;11.90;;;;;;;;;;5056290;28;20106;-71
2023/10/11 00:10:43;;;;;;;;;;;;;;;;;;5073031;28;20088;-74
2023/10/11 00:13:15;;;;;;;39.80;11.15;;;;;;;;;;5073852;28;19966;-73
2023/10/11 00:15:41;;;;;;;34.33;11.63;;;;;;;;;;5073958;28;20052;-72
2023/10/11 00:18:07;;;;;;;44.10;12.52;;;;;;;;;;5105595;28;20175;-72
2023/10/11 00:23:06;;;;;;;41.38;12.10;;;;;;;;;;5072676;28;20048;-71
2023/10/11 00:25:32;;;;;;;41.03;13.70;;;;;;;;;;5072461;28;20090;-72
2023/10/11 00:27:58;;;;;;;40.37;12.83;;;;;;;;;;5073054;28;20048;-72
2023/10/11 00:30:25;;;;;;;38.20;12.90;;;;;;;;;;5072959;28;20044;-71
2023/10/11 00:32:52;;;;;;;39.45;13.70;;;;;;;;;;5071949;28;20334;-71
2023/10/11 00:35:19;;;;;;;37.05;13.65;;;;;;;;;;5056294;28;20102;-71
2023/10/11 00:37:47;;;;;;;39.33;13.13;;;;;;;;;;5053272;28;20397;-73
2023/10/11 00:40:14;;;;;;;43.03;13.52;;;;;;;;;;5052665;28;20136;-72
2023/10/11 00:42:41;;;;;;;;;;;;;;;;;;5053878;28;20045;-70
2023/10/11 00:45:08;;;;;;;41.17;12.80;;;;;;;;;;5052847;28;19963;-69
2023/10/11 00:47:40;;;;;;;49.65;15.40;;;;;;;;;;5086150;28;20045;-71
2023/10/11 00:50:14;;;;;;;39.05;14.45;;;;;;;;;;5052585;28;20053;-71
2023/10/11 00:52:42;;;;;;;40.97;14.10;;;;;;;;;;5073520;28;20135;-70
2023/10/11 00:55:17;;;;;;;41.63;14.27;;;;;;;;;;5072285;28;20128;-70
2023/10/11 00:57:45;;;;;;;47.80;16.50;;;;;;;;;;5072891;28;20101;-71
2023/10/11 01:00:14;;;;;;;41.72;14.15;;;;;;;;;;5073115;28;20055;-71
2023/10/11 01:02:40;;;;;;;42.38;14.63;;;;;;;;;;5071810;28;20045;-69
2023/10/11 01:05:06;;;;;;;50.77;15.97;;;;;;;;;;5071996;28;20044;-71
2023/10/11 01:07:32;;;;;;;46.00;16.10;;;;;;;;;;5072421;28;20045;-72
2023/10/11 01:09:58;;;;;;;44.67;14.75;;;;;;;;;;5072730;28;20488;-69
2023/10/11 01:12:25;;;;;;;49.50;15.40;;;;;;;;;;5072555;28;20044;-70
2023/10/11 01:14:57;;;;;;;47.30;15.87;;;;;;;;;;5055365;28;20059;-71
2023/10/11 01:17:23;;;;;;;52.55;16.08;;;;;;;;;;5071318;28;20052;-71
2023/10/11 01:19:51;;;;;;;51.72;16.95;;;;;;;;;;5072510;28;20123;-71
2023/10/11 01:22:18;;;;;;;53.17;16.38;;;;;;;;;;5072502;28;20083;-71
2023/10/11 01:24:48;;;;;;;49.75;15.45;;;;;;;;;;5068220;28;20036;-70
2023/10/11 01:27:17;;;;;;;48.92;16.13;;;;;;;;;;5052212;28;20266;-71
2023/10/11 01:29:43;;;;;;;46.60;16.10;;;;;;;;;;5053052;28;20040;-71
2023/10/11 01:32:10;;;;;;;48.83;16.40;;;;;;;;;;5051522;28;20087;-71
2023/10/11 01:34:36;;;;;;;52.70;17.48;;;;;;;;;;5052259;28;20137;-71
2023/10/11 01:37:02;;;;;;;57.50;17.33;;;;;;;;;;5052120;28;20056;-71
2023/10/11 01:39:32;;;;;;;47.88;17.02;;;;;;;;;;5052970;28;20049;-70
2023/10/11 01:41:59;;;;;;;57.50;16.25;;;;;;;;;;5052888;28;20127;-70
2023/10/11 01:44:25;;;;;;;47.92;16.40;;;;;;;;;;5052679;28;20041;-70
2023/10/11 01:46:51;;;;;;;51.45;17.48;;;;;;;;;;5051770;28;20060;-72
2023/10/11 01:49:17;;;;;;;52.53;15.33;;;;;;;;;;5034706;28;20139;-72
2023/10/11 01:51:46;;;;;;;59.20;17.67;;;;;;;;;;5052051;28;20053;-70
2023/10/11 01:54:22;;;;;;;56.15;17.23;;;;;;;;;;5051321;28;20052;-72
2023/10/11 01:56:48;;;;;;;53.72;18.55;;;;;;;;;;5052294;28;20053;-70
2023/10/11 01:59:15;;;;;;;57.80;18.57;;;;;;;;;;5051553;28;20049;-71
2023/10/11 02:01:43;;;;;;;50.53;16.73;;;;;;;;;;5053265;28;20052;-72
2023/10/11 02:04:14;;;;;;;50.85;18.38;;;;;;;;;;5034672;28;20464;-72
2023/10/11 02:06:41;;;;;;;54.45;18.02;;;;;;;;;;5052860;28;20044;-71
2023/10/11 02:09:09;;;;;;;;;;;;;;;;;;5052708;28;20061;-72
2023/10/11 02:11:35;;;;;;;55.92;17.83;;;;;;;;;;5051205;28;19930;-72
2023/10/11 02:14:02;;;;;;;59.08;18.73;;;;;;;;;;5051916;28;20068;-73
2023/10/11 02:16:30;;;;;;;54.10;17.92;;;;;;;;;;5052537;28;20080;-71
2023/10/11 02:18:59;;;;;;;53.13;18.08;;;;;;;;;;5050780;28;20083;-72
2023/10/11 02:21:31;;;;;;;52.35;18.55;;;;;;;;;;5051931;28;20082;-72
2023/10/11 02:23:59;;;;;;;55.22;18.88;;;;;;;;;;5050329;28;20553;-72
2023/10/11 02:26:30;;;;;;;65.07;18.92;;;;;;;;;;5069182;28;20489;-72
2023/10/11 02:29:00;;;;;;;61.78;19.02;;;;;;;;;;5072458;28;20075;-70
2023/10/11 02:31:31;;;;;;;65.93;19.88;;;;;;;;;;5071209;28;20047;-71
2023/10/11 02:34:12;;;;;;;65.25;18.67;;;;;;;;;;5070985;28;20052;-70
2023/10/11 02:36:41;;;;;;;57.88;18.40;;;;;;;;;;5072509;28;20063;-71
2023/10/11 02:39:07;;;;;;;61.50;18.65;;;;;;;;;;5074058;28;20052;-71
2023/10/11 02:41:37;;;;;;;53.07;19.50;;;;;;;;;;5073873;28;20037;-72
2023/10/11 02:44:03;;;;;;;71.07;19.85;;;;;;;;;;5073192;28;20047;-70
2023/10/11 02:46:33;;;;;;;64.03;18.88;;;;;;;;;;5075601;28;20048;-70
2023/10/11 02:49:07;;;;;;;68.60;19.27;;;;;;;;;;5076603;28;20056;-70
2023/10/11 02:51:33;;;;;;;69.90;20.25;;;;;;;;;;5073778;28;20141;-72
2023/10/11 02:54:04;;;;;;;61.50;19.63;;;;;;;;;;5076918;28;20101;-73
2023/10/11 02:56:46;;;;;;;71.05;19.42;;;;;;;;;;5076138;28;20386;-68
2023/10/11 02:59:25;;;;;;;58.53;20.02;;;;;;;;;;5076567;28;20059;-66
2023/10/11 03:02:01;;;;;;;63.03;19.65;;;;;;;;;;5075537;28;20037;-66
2023/10/11 03:04:32;;;;;;;58.25;19.05;;;;;;;;;;5076519;28;20048;-67
2023/10/11 03:07:00;;;;;;;62.13;18.98;;;;;;;;;;5076541;28;20049;-67
2023/10/11 03:09:27;;;;;;;59.00;18.90;;;;;;;;;;5076058;28;20049;-66
2023/10/11 03:11:53;;;;;;;;;;;;;;;;;;5059194;28;20099;-67
2023/10/11 03:14:20;;;;;;;70.40;19.63;;;;;;;;;;5075060;28;20368;-67
2023/10/11 03:16:55;;;;;;;60.40;19.83;;;;;;;;;;5074949;28;20053;-68
2023/10/11 03:19:22;;;;;;;65.95;19.67;;;;;;;;;;5076074;28;20415;-67
2023/10/11 03:21:53;;;;;;;;;;;;;;;;;;5077165;28;20040;-67
2023/10/11 03:24:20;;;;;;;62.33;17.75;;;;;;;;;;5076367;28;19967;-68
2023/10/11 03:26:48;;;;;;;68.22;19.52;;;;;;;;;;5076350;28;20056;-67
2023/10/11 03:29:17;;;;;;;65.07;19.42;;;;;;;;;;5058694;28;20041;-67
2023/10/11 03:31:44;;;;;;;68.25;19.88;;;;;;;;;;5075931;28;20047;-67
2023/10/11 03:34:17;;;;;;;61.50;19.30;;;;;;;;;;5076139;28;20051;-69
2023/10/11 03:36:49;;;;;;;61.17;19.05;;;;;;;;;;5075322;28;20451;-66
2023/10/11 03:39:26;;;;;;;65.93;20.40;;;;;;;;;;5074877;28;20098;-68
2023/10/11 03:41:59;;;;;;;60.42;19.63;;;;;;;;;;5109530;28;20051;-67
2023/10/11 03:44:28;;;;;;;60.95;18.67;;;;;;;;;;5075794;28;20132;-67
2023/10/11 03:46:54;;;;;;;66.32;18.48;;;;;;;;;;5075679;28;20057;-67
2023/10/11 03:51:50;;;;;;;64.90;20.45;;;;;;;;;;5075229;28;20056;-68
2023/10/11 03:54:23;;;;;;;55.47;19.08;;;;;;;;;;5076157;28;20145;-68
2023/10/11 03:57:03;;;;;;;63.42;19.63;;;;;;;;;;5075525;28;20041;-67
2023/10/11 03:59:38;;;;;;;58.67;19.42;;;;;;;;;;5075552;28;20049;-67
2023/10/11 04:02:04;;;;;;;52.45;17.15;;;;;;;;;;5075556;28;20045;-68
2023/10/11 04:04:30;;;;;;;59.63;16.80;;;;;;;;;;5075377;28;20078;-66
2023/10/11 04:07:05;;;;;;;57.42;19.30;;;;;;;;;;5108240;28;20469;-67
2023/10/11 04:09:33;;;;;;;62.58;17.70;;;;;;;;;;5075406;28;20080;-67
2023/10/11 04:12:04;;;;;;;71.85;21.23;;;;;;;;;;5075262;28;20052;-66
2023/10/11 04:17:25;;;;;;;58.15;18.50;;;;;;;;;;5075221;28;20059;-66
2023/10/11 04:22:51;;;;;;;60.92;17.77;;;;;;;;;;5074611;28;20063;-68
2023/10/11 04:25:22;;;;;;;60.30;19.42;;;;;;;;;;5075745;28;20079;-68
2023/10/11 04:27:54;;;;;;;61.55;18.73;;;;;;;;;;5073943;28;20495;-67
2023/10/11 04:30:41;;;;;;;63.92;18.73;;;;;;;;;;5073585;28;20054;-68
2023/10/11 04:33:10;;;;;;;56.88;18.00;;;;;;;;;;5074314;28;20094;-67
2023/10/11 04:35:36;;;;;;;56.30;17.90;;;;;;;;;;5075275;28;20452;-67
2023/10/11 04:38:03;;;;;;;70.97;18.70;;;;;;;;;;5074723;28;20129;-67
2023/10/11 04:43:08;;;;;;;63.03;18.98;;;;;;;;;;5074612;28;20049;-68
2023/10/11 04:45:44;;;;;;;66.70;19.63;;;;;;;;;;5074502;28;20044;-66
2023/10/11 04:48:29;;;;;;;60.65;17.83;;;;;;;;;;5056833;28;20052;-67
2023/10/11 04:50:56;;;;;;;65.35;19.33;;;;;;;;;;5074873;28;20048;-66
2023/10/11 04:53:31;;;;;;;63.03;19.20;;;;;;;;;;5075300;28;20052;-68
2023/10/11 04:55:59;;;;;;;;;;;;;;;;;;5075085;28;20052;-67
2023/10/11 04:58:51;;;;;;;66.60;19.63;;;;;;;;;;5074186;28;20098;-67
2023/10/11 05:01:24;;;;;;;72.00;20.48;;;;;;;;;;5073980;28;20084;-67
2023/10/11 05:04:00;;;;;;;68.57;19.77;;;;;;;;;;5074152;28;20103;-68
2023/10/11 05:06:31;;;;;;;86.78;20.55;;;;;;;;;;5074122;28;20048;-67
2023/10/11 05:09:21;;;;;;;75.00;20.63;;;;;;;;;;5072221;28;20056;-67
2023/10/11 05:11:53;;;;;;;65.80;19.73;;;;;;;;;;5073008;28;20193;-67
2023/10/11 05:14:29;;;;;;;75.47;20.25;;;;;;;;;;5074493;28;20091;-67
2023/10/11 05:22:35;;;;;;;70.85;20.40;;;;;;;;;;5074021;28;20467;-67
2023/10/11 05:32:49;;;;;;;76.63;21.23;;;;;;;;;;5073398;28;20049;-67
2023/10/11 05:35:43;;;;;;;87.93;23.60;;;;;;;;;;5073525;28;20052;-67
2023/10/11 05:51:56;;;;;;;79.45;23.65;;;;;;;;;;5073412;28;20053;-66
2023/10/11 05:54:25;;;;;;;90.43;23.55;;;;;;;;;;5073845;28;20045;-66
2023/10/11 05:57:03;;;;;;;89.40;24.15;;;;;;;;;;5073190;28;20489;-67
2023/10/11 05:59:31;;;;;;;82.72;22.73;;;;;;;;;;5072256;28;20087;-65
2023/10/11 06:01:58;;;;;;;86.38;24.33;;;;;;;;;;5072345;28;20496;-66
2023/10/11 06:04:24;;;;;;;81.73;23.37;;;;;;;;;;5073168;28;20052;-66
2023/10/11 06:06:57;;;;;;;79.53;22.87;;;;;;;;;;5072969;28;20106;-65
2023/10/11 06:09:27;;;;;;;85.32;24.33;;;;;;;;;;5072359;28;20109;-66
2023/10/11 06:11:54;;;;;;;81.45;23.65;;;;;;;;;;5072775;28;20040;-66
2023/10/11 06:14:21;;;;;;;79.97;24.02;;;;;;;;;;5072088;28;20072;-69
2023/10/11 06:16:57;;;;;;;;;;;;;;;;;;5073278;28;20099;-65
2023/10/11 06:19:26;;;;;;;91.30;22.45;;;;;;;;;;5073122;28;19924;-67
2023/10/11 06:22:10;;;;;;;84.28;23.33;;;;;;;;;;5077042;28;20047;-67
2023/10/11 06:24:37;;;;;;;80.57;23.00;;;;;;;;;;5076655;28;20060;-67
2023/10/11 06:29:54;;;;;;;80.28;23.48;;;;;;;;;;5077614;28;20052;-67
2023/10/11 06:32:22;;;;;;;78.95;24.17;;;;;;;;;;5077033;28;20365;-65
2023/10/11 06:34:50;;;;;;;83.38;23.50;;;;;;;;;;5075491;28;20578;-67
2023/10/11 06:37:25;;;;;;;84.40;23.50;;;;;;;;;;5076888;28;20052;-67
2023/10/11 06:44:57;;;;;;;75.55;23.30;;;;;;;;;;5075700;28;20159;-66
2023/10/11 06:47:23;;;;;;;75.15;23.67;;;;;;;;;;5076751;28;20055;-66
2023/10/11 06:49:54;;;;;;;82.88;25.05;;;;;;;;;;5076490;28;20052;-65
2023/10/11 06:52:25;;;;;;;83.07;23.27;;;;;;;;;;5076274;28;20059;-66
2023/10/11 06:55:08;;;;;;;78.90;24.20;;;;;;;;;;5077030;28;20068;-67
2023/10/11 06:57:45;;;;;;;86.15;24.73;;;;;;;;;;5077038;28;20090;-67
2023/10/11 07:00:21;;;;;;;79.32;23.83;;;;;;;;;;5076186;28;20052;-65
2023/10/11 07:02:52;;;;;;;81.50;23.02;;;;;;;;;;5076828;28;20102;-67
2023/10/11 07:05:20;;;;;;;97.43;23.83;;;;;;;;;;5074817;28;20113;-66
2023/10/11 07:07:52;;;;;;;86.38;24.00;;;;;;;;;;5075723;28;20342;-67
2023/10/11 07:10:33;;;;;;;81.22;24.48;;;;;;;;;;5077019;28;20049;-66
2023/10/11 07:13:03;;;;;;;78.63;24.65;;;;;;;;;;5076342;28;20132;-66
2023/10/11 07:15:40;;;;;;;78.20;22.70;;;;;;;;;;5076068;28;20093;-67
2023/10/11 07:18:21;;;;;;;73.78;22.55;;;;;;;;;;5075805;28;20040;-67
2023/10/11 07:21:25;;;;;;;78.15;23.30;;;;;;;;;;5076018;28;20044;-66
2023/10/11 07:23:55;;;;;;;84.05;23.83;;;;;;;;;;5073677;28;20048;-66
2023/10/11 07:28:51;;;;;;;87.72;25.98;;;;;;;;;;5074922;28;20048;-66
2023/10/11 07:31:27;;;;;;;96.95;25.88;;;;;;;;;;5074937;28;20052;-66
2023/10/11 07:33:56;;;;;;;96.28;25.67;;;;;;;;;;5075551;28;20477;-66
2023/10/11 07:36:22;;;;;;;97.28;26.27;;;;;;;;;;5074619;28;20045;-66
2023/10/11 07:38:55;;;;;;;92.45;24.80;;;;;;;;;;5074748;28;20040;-66
2023/10/11 07:41:23;;;;;;;109.00;28.25;;;;;;;;;;5108592;28;20055;-67
2023/10/11 07:43:49;;;;;;;100.72;27.08;;;;;;;;;;5075243;28;20044;-67
2023/10/11 07:46:15;;;;;;;86.70;25.07;;;;;;;;;;5058150;28;20048;-66
2023/10/11 07:48:41;;;;;;;115.60;27.58;;;;;;;;;;5076388;28;20071;-65
2023/10/11 07:51:10;;;;;;;96.90;28.83;;;;;;;;;;5075510;28;20052;-66
2023/10/11 07:53:37;;;;;;;101.43;29.02;;;;;;;;;;5075257;28;20135;-67
2023/10/11 07:56:03;;;;;;;98.95;25.40;;;;;;;;;;5074400;28;20052;-67
2023/10/11 07:58:34;;;;;;;122.13;31.97;;;;;;;;;;5074446;28;20400;-66
2023/10/11 08:01:15;;;;;;;109.97;30.73;;;;;;;;;;5076245;28;20131;-67
2023/10/11 08:03:44;;;;;;;103.95;30.38;;;;;;;;;;5076357;28;20389;-66
2023/10/11 08:06:14;;;;;;;116.03;30.67;;;;;;;;;;5075393;28;20048;-67
2023/10/11 08:08:43;;;;;;;114.40;29.75;;;;;;;;;;5075387;28;20462;-66
2023/10/11 08:11:22;;;;;;;113.45;31.77;;;;;;;;;;5074764;28;20362;-66
2023/10/11 08:13:49;;;;;;;116.72;31.77;;;;;;;;;;5075952;28;20411;-67
2023/10/11 08:16:19;;;;;;;106.97;31.92;;;;;;;;;;5075203;28;20052;-67
2023/10/11 08:18:49;;;;;;;114.85;32.45;;;;;;;;;;5075607;28;20449;-67
2023/10/11 08:21:16;;;;;;;104.85;31.17;;;;;;;;;;5075497;28;20121;-67
2023/10/11 08:23:50;;;;;;;95.88;27.30;;;;;;;;;;5075390;28;20106;-65
2023/10/11 08:26:18;;;;;;;111.32;30.10;;;;;;;;;;5075064;28;20056;-66
2023/10/11 08:28:49;;;;;;;105.50;29.35;;;;;;;;;;5074962;28;20052;-67
2023/10/11 08:31:39;;;;;;;109.07;30.55;;;;;;;;;;5075311;28;20045;-66
2023/10/11 08:34:05;;;;;;;110.55;30.70;;;;;;;;;;5075254;28;20097;-67
2023/10/11 08:36:33;;;;;;;115.93;31.53;;;;;;;;;;5074797;28;20439;-67
2023/10/11 08:39:06;;;;;;;106.43;31.70;;;;;;;;;;5075162;28;20097;-66
2023/10/11 08:41:35;;;;;;;112.22;31.50;;;;;;;;;;5074581;28;20139;-67
2023/10/11 08:44:08;;;;;;;113.25;31.55;;;;;;;;;;5074281;28;20105;-67
2023/10/11 08:46:34;;;;;;;104.57;29.98;;;;;;;;;;5057152;28;20438;-68
2023/10/11 08:49:00;;;;;;;108.40;31.13;;;;;;;;;;5074273;28;20102;-69
2023/10/11 08:51:36;;;;;;;99.77;28.17;;;;;;;;;;5056765;28;20049;-67
2023/10/11 08:54:11;;;;;;;87.57;24.40;;;;;;;;;;5074799;28;20286;-68
2023/10/11 08:56:37;;;;;;;103.35;29.95;;;;;;;;;;5074921;28;20056;-66
2023/10/11 08:59:04;;;;;;;122.15;30.45;;;;;;;;;;5073096;28;20133;-66
2023/10/11 09:01:36;;;;;;;100.43;28.05;;;;;;;;;;5073394;28;20062;-68
2023/10/11 09:04:04;;;;;;;95.30;27.50;;;;;;;;;;5073996;28;20485;-67
2023/10/11 09:06:31;;;;;;;92.28;27.98;;;;;;;;;;5074304;28;20071;-67
2023/10/11 09:09:00;;;;;;;92.53;27.08;;;;;;;;;;5074027;28;20471;-67
2023/10/11 09:11:29;;;;;;;100.40;28.65;;;;;;;;;;5074265;28;20052;-65
2023/10/11 09:14:12;;;;;;;115.80;30.48;;;;;;;;;;5073968;28;20464;-65
2023/10/11 09:16:39;;;;;;;94.43;29.05;;;;;;;;;;5072753;28;20052;-65
2023/10/11 09:19:06;;;;;;;96.57;27.98;;;;;;;;;;5073841;28;20049;-65
2023/10/11 09:21:35;;;;;;;93.57;29.23;;;;;;;;;;5073877;28;20052;-66
2023/10/11 09:24:22;;;;;;;99.30;28.52;;;;;;;;;;5073485;28;20052;-67
2023/10/11 09:27:10;;;;;;;92.10;28.00;;;;;;;;;;5074458;28;20068;-66
2023/10/11 09:29:38;;;;;;;93.82;26.73;;;;;;;;;;5073698;28;20041;-66
2023/10/11 09:32:05;;;;;;;99.72;28.23;;;;;;;;;;5073513;28;20369;-65
2023/10/11 09:34:31;;;;;;;84.88;25.67;;;;;;;;;;5073522;28;20056;-67
2023/10/11 09:37:00;;;;;;;81.60;22.63;;;;;;;;;;5072304;28;20049;-67
2023/10/11 09:39:29;;;;;;;87.30;26.73;;;;;;;;;;5072941;28;20053;-69
2023/10/11 09:42:02;;;;;;;89.13;27.70;;;;;;;;;;5073862;28;20095;-67
2023/10/11 09:44:34;;;;;;;94.85;29.58;;;;;;;;;;5073598;28;20078;-66
2023/10/11 09:47:02;;;;;;;86.85;25.83;;;;;;;;;;5072371;28;20044;-66
2023/10/11 09:49:30;;;;;;;87.53;25.88;;;;;;;;;;5073481;28;20043;-66
2023/10/11 09:51:59;;;;;;;86.70;26.90;;;;;;;;;;5071830;28;20078;-67
2023/10/11 09:54:27;;;;;;;84.03;25.98;;;;;;;;;;5072726;28;20056;-67
2023/10/11 09:57:13;;;;;;;84.15;24.67;;;;;;;;;;5072236;28;20447;-67
2023/10/11 10:00:08;;;;;;;77.10;24.05;;;;;;;;;;5072830;28;20102;-66
2023/10/11 10:02:36;;;;;;;95.60;26.90;;;;;;;;;;5074999;28;20076;-67
2023/10/11 10:05:05;;;;;;;59.97;19.27;;;;;;;;;;5073424;28;20235;-68
2023/10/11 10:07:44;;;;;;;81.35;26.02;;;;;;;;;;5072333;28;20067;-65
2023/10/11 10:10:12;;;;;;;73.97;25.38;;;;;;;;;;5073378;28;20040;-66
2023/10/11 10:12:44;;;;;;;81.78;26.70;;;;;;;;;;5073154;28;20080;-67
2023/10/11 10:15:23;;;;;;;72.40;24.50;;;;;;;;;;5073249;28;20144;-67
2023/10/11 10:18:01;;;;;;;69.78;22.85;;;;;;;;;;5073282;28;20049;-67
2023/10/11 10:20:33;;;;;;;67.82;24.70;;;;;;;;;;5073229;28;20051;-66
2023/10/11 10:23:17;;;;;;;81.05;25.75;;;;;;;;;;5072743;28;20480;-66
2023/10/11 10:25:48;;;;;;;67.10;22.60;;;;;;;;;;5072945;28;20442;-66
2023/10/11 10:28:35;;;;;;;74.72;22.95;;;;;;;;;;5072826;28;20063;-67
2023/10/11 10:31:33;;;;;;;69.97;23.77;;;;;;;;;;5073216;28;20048;-65
2023/10/11 10:34:05;;;;;;;68.50;22.27;;;;;;;;;;5064585;28;20063;-68
2023/10/11 10:36:31;;;;;;;67.47;21.90;;;;;;;;;;5073140;28;20045;-66
2023/10/11 10:39:00;;;;;;;53.58;17.70;;;;;;;;;;5073292;28;20177;-67
2023/10/11 10:41:33;;;;;;;58.58;18.52;;;;;;;;;;5073014;28;20048;-68
2023/10/11 10:44:16;;;;;;;58.70;18.02;;;;;;;;;;5072957;28;20045;-67
2023/10/11 10:46:49;;;;;;;52.50;16.50;;;;;;;;;;5072318;28;20123;-67
2023/10/11 10:49:17;;;;;;;51.60;16.42;;;;;;;;;;5073784;28;20083;-66
2023/10/11 10:51:56;;;;;;;42.47;13.80;;;;;;;;;;5072931;28;20075;-66
2023/10/11 10:54:23;;;;;;;41.50;11.35;;;;;;;;;;5072749;28;20053;-69
2023/10/11 10:56:53;;;;;;;37.13;11.65;;;;;;;;;;5072748;28;20097;-67
2023/10/11 10:59:20;;;;;;;42.72;11.90;;;;;;;;;;5055143;28;20484;-66
2023/10/11 11:01:47;;;;;;;38.72;12.07;;;;;;;;;;5072863;28;20052;-66
2023/10/11 11:04:14;;;;;;;35.33;11.40;;;;;;;;;;5072527;28;20452;-67
2023/10/11 11:06:40;;;;;;;32.70;11.75;;;;;;;;;;5073554;28;20045;-66
2023/10/11 11:09:14;;;;;;;35.43;11.70;;;;;;;;;;5076370;28;20095;-66
2023/10/11 11:11:43;;;;;;;26.75;10.52;;;;;;;;;;5109434;28;20286;-67
2023/10/11 11:14:10;;;;;;;34.55;10.63;;;;;;;;;;5076084;28;20101;-66
2023/10/11 11:16:41;;;;;;;35.22;10.32;;;;;;;;;;5076250;28;20053;-67
2023/10/11 11:19:17;;;;;;;32.05;9.77;;;;;;;;;;5076784;28;20056;-66
2023/10/11 11:21:46;;;;;;;32.95;9.70;;;;;;;;;;5076514;28;20139;-66
2023/10/11 11:24:27;;;;;;;32.03;8.20;;;;;;;;;;5059275;28;20052;-66
2023/10/11 11:26:54;;;;;;;26.85;8.98;;;;;;;;;;5075588;28;20063;-68
2023/10/11 11:29:33;;;;;;;26.30;7.97;;;;;;;;;;5058339;28;20056;-69
2023/10/11 11:31:59;;;;;;;22.13;7.10;;;;;;;;;;5074779;28;20049;-67
2023/10/11 11:34:34;;;;;;;22.23;6.93;;;;;;;;;;5075522;28;20045;-68
2023/10/11 11:37:07;;;;;;;21.55;6.78;;;;;;;;;;5074602;28;20067;-67
2023/10/11 11:39:39;;;;;;;19.40;6.07;;;;;;;;;;5074760;28;20056;-66
2023/10/11 11:42:39;;;;;;;25.10;6.13;;;;;;;;;;5076661;28;20044;-68
2023/10/11 11:44:58;;;;;;;23.98;5.63;;;;;;;;;;5074472;28;20147;-67
2023/10/11 11:47:24;;;;;;;21.45;5.82;;;;;;;;;;5075392;28;20531;-67
2023/10/11 11:49:50;;;;;;;16.52;5.75;;;;;;;;;;5075775;28;20099;-66
2023/10/11 11:52:17;;;;;;;20.98;6.63;;;;;;;;;;5075253;28;20072;-67
2023/10/11 11:54:43;;;;;;;21.45;5.82;;;;;;;;;;5076225;28;20048;-66
2023/10/11 11:57:10;;;;;;;23.60;6.25;;;;;;;;;;5075627;28;20127;-66
2023/10/11 11:59:38;;;;;;;20.50;6.05;;;;;;;;;;5074485;28;20105;-66
2023/10/11 12:02:16;;;;;;;19.85;5.93;;;;;;;;;;5076274;28;20124;-66
2023/10/11 12:04:44;;;;;;;22.23;7.10;;;;;;;;;;5075276;28;20071;-66
2023/10/11 12:07:11;;;;;;;24.52;6.88;;;;;;;;;;5074322;28;20055;-67
2023/10/11 12:09:38;;;;;;;;;;;;;;;;;;5074784;28;20059;-67
2023/10/11 12:12:05;;;;;;;31.65;7.18;;;;;;;;;;5076021;28;20316;-67
2023/10/11 12:14:38;;;;;;;27.48;6.03;;;;;;;;;;5074492;28;20047;-66
2023/10/11 12:17:11;;;;;;;19.48;6.05;;;;;;;;;;5074738;28;20384;-67
2023/10/11 12:19:37;;;;;;;26.52;6.47;;;;;;;;;;5074032;28;20056;-67
2023/10/11 12:22:04;;;;;;;19.65;5.82;;;;;;;;;;5074921;28;20484;-68
2023/10/11 12:24:30;;;;;;;19.55;6.47;;;;;;;;;;5075849;28;20400;-67
2023/10/11 12:26:59;;;;;;;18.40;5.80;;;;;;;;;;5079288;28;20053;-66
2023/10/11 12:29:29;;;;;;;22.08;6.43;;;;;;;;;;5079264;28;20131;-67
2023/10/11 12:31:55;;;;;;;20.98;5.65;;;;;;;;;;5076989;28;20041;-67
2023/10/11 12:34:27;;;;;;;14.88;4.95;;;;;;;;;;5075830;28;20051;-67
2023/10/11 12:36:53;;;;;;;23.73;6.55;;;;;;;;;;5075421;28;20132;-67
2023/10/11 12:39:25;;;;;;;18.23;6.38;;;;;;;;;;5074775;28;20411;-67
2023/10/11 12:41:52;;;;;;;22.80;6.90;;;;;;;;;;5073663;28;20121;-67
2023/10/11 12:44:24;;;;;;;19.92;6.22;;;;;;;;;;5074577;28;20050;-68
2023/10/11 12:46:51;;;;;;;19.35;6.30;;;;;;;;;;5075070;28;20083;-67
2023/10/11 12:49:17;;;;;;;21.80;5.63;;;;;;;;;;5073142;28;20056;-67
2023/10/11 12:51:44;;;;;;;26.48;6.68;;;;;;;;;;5074287;28;20127;-68
2023/10/11 12:54:11;;;;;;;21.45;6.53;;;;;;;;;;5074042;28;20087;-68
2023/10/11 12:56:37;;;;;;;19.67;6.97;;;;;;;;;;5074224;28;20413;-70
2023/10/11 12:59:10;;;;;;;16.08;6.60;;;;;;;;;;5074423;28;20536;-67
2023/10/11 13:01:37;;;;;;;19.60;7.20;;;;;;;;;;5074202;28;20049;-67
2023/10/11 13:04:09;;;;;;;20.60;7.25;;;;;;;;;;5072982;28;20076;-69
2023/10/11 13:06:37;;;;;;;23.65;8.50;;;;;;;;;;5073353;28;20044;-68
2023/10/11 13:09:05;;;;;;;22.95;7.07;;;;;;;;;;5074008;28;20052;-67
2023/10/11 13:11:31;;;;;;;25.05;8.30;;;;;;;;;;5073919;28;20452;-67
2023/10/11 13:14:05;;;;;;;22.52;7.95;;;;;;;;;;5073645;28;20101;-67
2023/10/11 13:16:32;;;;;;;26.45;8.63;;;;;;;;;;5074454;28;20052;-67
2023/10/11 13:19:00;;;;;;;18.38;7.93;;;;;;;;;;5074165;28;20049;-67
2023/10/11 13:21:32;;;;;;;25.30;8.40;;;;;;;;;;5072596;28;20056;-68
2023/10/11 13:23:59;;;;;;;26.58;7.90;;;;;;;;;;5074711;28;20357;-69
2023/10/11 13:26:25;;;;;;;25.75;7.25;;;;;;;;;;5106666;28;20051;-68
2023/10/11 13:28:53;;;;;;;24.63;7.90;;;;;;;;;;5073801;28;20044;-67
2023/10/11 13:31:19;;;;;;;21.60;8.32;;;;;;;;;;5073243;28;20053;-68
2023/10/11 13:33:45;;;;;;;25.58;8.43;;;;;;;;;;5072477;28;20045;-66
2023/10/11 13:36:12;;;;;;;22.52;7.90;;;;;;;;;;5055853;28;20048;-67
2023/10/11 13:38:44;;;;;;;27.33;8.68;;;;;;;;;;5072486;28;20061;-67
2023/10/11 13:41:12;;;;;;;20.58;7.65;;;;;;;;;;5072707;28;20052;-67
2023/10/11 13:43:38;;;;;;;20.45;7.88;;;;;;;;;;5073596;28;20055;-66
2023/10/11 13:46:10;;;;;;;;;;;;;;;;;;5072771;28;20044;-66
2023/10/11 13:48:37;;;;;;;25.23;8.45;;;;;;;;;;5073414;28;19920;-67
2023/10/11 13:51:03;;;;;;;;;;;;;;;;;;5073674;28;20095;-68
2023/10/11 13:53:40;;;;;;;22.40;7.90;;;;;;;;;;5073917;28;19921;-67
2023/10/11 13:56:11;;;;;;;26.17;8.00;;;;;;;;;;5073591;28;20065;-67
2023/10/11 13:58:37;;;;;;;19.92;7.47;;;;;;;;;;5073572;28;20189;-67
2023/10/11 14:01:24;;;;;;;24.63;7.03;;;;;;;;;;5073495;28;20048;-68
2023/10/11 14:03:52;;;;;;;24.15;7.20;;;;;;;;;;5073546;28;20090;-68
2023/10/11 14:06:41;;;;;;;24.15;6.50;;;;;;;;;;5072195;28;20411;-68
2023/10/11 14:09:16;;;;;;;20.40;6.90;;;;;;;;;;5073018;28;20056;-71
2023/10/11 14:11:46;;;;;;;18.15;6.80;;;;;;;;;;5072220;28;20056;-67
2023/10/11 14:14:12;;;;;;;25.40;6.38;;;;;;;;;;5073081;28;20044;-67
2023/10/11 14:16:41;;;;;;;22.17;6.00;;;;;;;;;;5038852;28;20507;-68
2023/10/11 14:19:13;;;;;;;21.55;6.00;;;;;;;;;;5073036;28;20558;-66
2023/10/11 14:21:40;;;;;;;17.10;6.25;;;;;;;;;;5072670;28;20045;-68
2023/10/11 14:24:06;;;;;;;;;;;;;;;;;;5073289;28;20041;-67
2023/10/11 14:26:35;;;;;;;21.33;6.85;;;;;;;;;;5073014;28;19927;-67
2023/10/11 14:29:07;;;;;;;19.15;5.55;;;;;;;;;;5073063;28;20048;-66
2023/10/11 14:31:33;;;;;;;23.83;5.68;;;;;;;;;;5072464;28;20044;-68
2023/10/11 14:34:00;;;;;;;22.25;5.95;;;;;;;;;;5072489;28;20049;-66
2023/10/11 14:36:26;;;;;;;20.42;6.07;;;;;;;;;;5055256;28;20048;-67
2023/10/11 14:38:53;;;;;;;21.10;5.70;;;;;;;;;;5071801;28;20090;-68
2023/10/11 14:41:22;;;;;;;14.70;5.30;;;;;;;;;;5074525;28;20508;-67
2023/10/11 14:43:49;;;;;;;12.07;4.10;;;;;;;;;;5059651;28;20442;-66
2023/10/11 14:46:19;;;;;;;19.00;5.20;;;;;;;;;;5075639;28;20093;-67
2023/10/11 14:48:48;;;;;;;12.30;4.30;;;;;;;;;;5076601;28;20504;-67
2023/10/11 14:51:15;;;;;;;19.77;6.20;;;;;;;;;;5076901;28;20044;-67
2023/10/11 14:53:41;;;;;;;20.20;6.65;;;;;;;;;;5077879;28;20056;-67
2023/10/11 14:56:07;;;;;;;14.93;5.88;;;;;;;;;;5082188;28;20108;-68
2023/10/11 14:58:34;;;;;;;17.27;5.75;;;;;;;;;;5080774;28;20048;-67
2023/10/11 15:01:07;;;;;;;16.00;6.07;;;;;;;;;;5076961;28;20091;-69
2023/10/11 15:03:35;;;;;;;16.88;5.82;;;;;;;;;;5076603;28;20068;-66
2023/10/11 15:06:08;;;;;;;18.02;5.88;;;;;;;;;;5076439;28;20049;-67
2023/10/11 15:08:35;;;;;;;17.33;5.57;;;;;;;;;;5076928;28;20052;-68
2023/10/11 15:11:04;;;;;;;17.25;5.90;;;;;;;;;;5075689;28;20411;-67
2023/10/11 15:13:32;;;;;;;21.38;6.15;;;;;;;;;;5076069;28;20091;-68
2023/10/11 15:15:58;;;;;;;17.17;6.40;;;;;;;;;;5075130;28;20052;-68
2023/10/11 15:18:24;;;;;;;18.00;5.47;;;;;;;;;;5109175;28;20056;-67
2023/10/11 15:20:51;;;;;;;18.70;5.70;;;;;;;;;;5076181;28;20071;-67
2023/10/11 15:23:17;;;;;;;;;;;;;;;;;;5075835;28;20084;-67
2023/10/11 15:25:44;;;;;;;17.10;6.03;;;;;;;;;;5074909;28;20371;-67
2023/10/11 15:28:10;;;;;;;23.10;6.07;;;;;;;;;;5075762;28;20342;-69
2023/10/11 15:30:40;;;;;;;19.05;5.63;;;;;;;;;;5075725;28;20487;-68
2023/10/11 15:33:12;;;;;;;17.08;5.75;;;;;;;;;;5075886;28;20052;-67
2023/10/11 15:35:39;;;;;;;17.45;6.07;;;;;;;;;;5075669;28;20048;-67